Hauptseite
METAR-TAF:

METAR-TAF

Flughäfen :

Harbin, China

Breite: 45-45N, Länge: 126-46E, Höhe: 143 m

Beobachtung

Neuester Wetterbericht von vor 28 Minuten, um 15:00 UTC
Wind 4 kt aus Ost/Nordost
Temperatur 9°C
Luftfeuchtigkeit 93%
Luftdruck 1008 hPa
Sichtweite 10 km oder mehr
keine Wolken unter 1500 m und keine Kumulonimbus oder Gewitterwolken

METAR: ZYHB 271500Z 06002MPS CAVOK 09/08 Q1008 NOSIG

Zeit: 23:28 (15:28 UTC)

Prognose

Neuester Wetterbericht von vor 6 Stunden und 45 Minuten, um 08:43 UTC
Gültige Prognose vom 27 um 12 UTC bis 28 um 12 UTC
Wind 8 kt aus Südost
Sichtweite: 6000 m
Aufgelockert bewölkt in der Höhe von 3300 ft

TAF: ZYHB 270843Z 2712/2812 14004MPS 6000 SCT033 TX23/2806Z TN10/2721Z

Wetterbeobachtungen und Prognosen von mehr als 4000 Flughäfen (METAR und TAF Bericht).

Die verfügbaren Stationen werden durch gelbe und rote Markierungen auf der Karte dargestellt.

Führen Sie die Maus auf sie, um den Namen der Station zu sehen.

Darauf klicken, um die Beobachtung von Wetterbeobachtungen und Prognosen zu sehen.

Um die Karte zu ändern : klicken Sie auf den grünen Tasten mit einem schwarzen Kreuz Zum Vergrößern, auf den grünen Button mit einem Gedankenstrich zu verkleinern, oder auf die grünen Pfeile für benachbarte Karten.


METAR-TAF: